Time;durP1;ratioP1;P1;durP2;ratioP2;P2;SDS_P1;SDS_P2;PMS_P1;PMS_P2;Temp;Humidity;BMP_temperature;BMP_pressure;BME280_temperature;BME280_humidity;BME280_pressure;Samples;Min_cycle;Max_cycle;Signal;HPM_P1;HPM_P2
2022/08/21 04:02:01;;;;;;;3.90;1.02;;;15.40;99.90;;;;;;5467762;23;94462;-80
2022/08/21 04:04:28;;;;;;;4.82;1.00;;;15.50;99.90;;;;;;4822927;29;91843;-79
2022/08/21 04:06:54;;;;;;;4.40;1.08;;;15.40;99.90;;;;;;4829700;29;91945;-80
2022/08/21 04:09:20;;;;;;;2.63;1.52;;;15.60;99.90;;;;;;4822196;29;92240;-81
2022/08/21 04:11:47;;;;;;;1.88;0.80;;;15.30;99.90;;;;;;4823482;29;92319;-81
2022/08/21 04:14:14;;;;;;;2.03;0.90;;;15.40;99.90;;;;;;4818458;29;92099;-81
2022/08/21 04:16:40;;;;;;;1.50;0.60;;;15.80;99.90;;;;;;4819852;29;91484;-81
2022/08/21 04:19:07;;;;;;;6.60;0.82;;;15.60;99.90;;;;;;4828972;29;92501;-81
2022/08/21 04:21:33;;;;;;;2.95;0.73;;;15.40;99.90;;;;;;4825140;29;92164;-81
2022/08/21 04:23:59;;;;;;;3.63;0.63;;;15.20;99.90;;;;;;4822870;29;92860;-81
2022/08/21 04:26:25;;;;;;;5.30;0.90;;;15.00;99.90;;;;;;4822788;29;91474;-81
2022/08/21 04:28:52;;;;;;;1.27;0.40;;;15.00;99.90;;;;;;4819460;29;92311;-81
2022/08/21 04:31:18;;;;;;;3.08;0.47;;;15.20;99.90;;;;;;4821381;29;91765;-81
2022/08/21 04:33:44;;;;;;;2.40;0.68;;;15.20;99.90;;;;;;4823149;29;91839;-81
2022/08/21 04:36:11;;;;;;;3.25;0.52;;;15.10;99.90;;;;;;4824486;29;92006;-80
2022/08/21 04:38:37;;;;;;;3.20;0.65;;;15.20;99.90;;;;;;4816658;29;92489;-80
2022/08/21 04:41:05;;;;;;;1.98;0.65;;;15.10;99.90;;;;;;4822300;29;91126;-80
2022/08/21 04:43:30;;;;;;;1.58;0.57;;;15.10;99.90;;;;;;4822009;29;91836;-80
2022/08/21 04:45:56;;;;;;;1.83;0.38;;;15.10;99.90;;;;;;4821650;29;91403;-80
2022/08/21 04:48:26;;;;;;;1.27;0.40;;;15.20;99.90;;;;;;4818533;29;93018;-80
2022/08/21 04:51:15;;;;;;;1.27;0.40;;;15.20;99.90;;;;;;4819148;29;92988;-80
2022/08/21 04:53:45;;;;;;;3.22;0.50;;;15.20;99.90;;;;;;4821618;29;91697;-80
2022/08/21 04:56:34;;;;;;;2.30;0.43;;;15.30;99.90;;;;;;4821784;29;91412;-80
2022/08/21 04:59:05;;;;;;;2.25;0.40;;;16.00;99.90;;;;;;4820615;29;91792;-80
2022/08/21 05:01:35;;;;;;;1.92;0.43;;;16.40;99.90;;;;;;4816729;29;92108;-80
2022/08/21 05:04:04;;;;;;;1.55;0.30;;;16.10;99.90;;;;;;4821886;29;91270;-80
2022/08/21 05:06:34;;;;;;;2.47;0.40;;;15.90;99.90;;;;;;4822110;29;91180;-80
2022/08/21 05:09:01;;;;;;;1.63;0.35;;;15.70;99.90;;;;;;4815122;29;92270;-80
2022/08/21 05:11:27;;;;;;;3.70;0.35;;;15.60;99.90;;;;;;4821496;29;92567;-81
2022/08/21 05:13:53;;;;;;;1.88;0.32;;;15.60;99.90;;;;;;4815061;29;92695;-81
2022/08/21 05:16:19;;;;;;;2.70;0.40;;;15.70;99.90;;;;;;4821461;29;91391;-81
2022/08/21 05:18:45;;;;;;;0.80;0.20;;;15.80;99.90;;;;;;4821284;29;92297;-80
2022/08/21 05:21:10;;;;;;;3.25;0.30;;;15.70;99.90;;;;;;4820999;29;91975;-80
2022/08/21 05:23:36;;;;;;;1.00;0.20;;;15.50;99.90;;;;;;4821160;29;91304;-80
2022/08/21 05:26:04;;;;;;;1.00;0.35;;;15.40;99.90;;;;;;4822153;29;91222;-80
2022/08/21 05:28:30;;;;;;;2.45;0.20;;;15.70;99.90;;;;;;4820625;29;93744;-80
2022/08/21 05:30:56;;;;;;;1.45;0.32;;;15.90;99.90;;;;;;4820570;29;92076;-81
2022/08/21 05:33:22;;;;;;;1.10;0.20;;;16.20;99.90;;;;;;4822262;29;91917;-79
2022/08/21 05:35:51;;;;;;;1.10;0.20;;;16.20;99.90;;;;;;4820294;29;91854;-79
2022/08/21 05:38:17;;;;;;;1.75;0.40;;;16.60;99.90;;;;;;4820549;29;93719;-78
2022/08/21 05:40:43;;;;;;;1.63;0.20;;;16.70;99.90;;;;;;4820396;29;92294;-80
2022/08/21 05:43:09;;;;;;;1.80;0.30;;;16.50;99.90;;;;;;4821590;29;92021;-79
2022/08/21 05:45:35;;;;;;;0.90;0.20;;;15.90;99.90;;;;;;4821670;29;91824;-79
2022/08/21 05:48:11;;;;;;;2.17;0.40;;;15.90;99.90;;;;;;4820430;29;92364;-80
2022/08/21 05:50:37;;;;;;;1.92;0.32;;;16.20;99.90;;;;;;4820996;29;91582;-79
2022/08/21 05:53:04;;;;;;;2.55;0.40;;;16.30;99.90;;;;;;4821488;29;92490;-79
2022/08/21 05:55:30;;;;;;;1.42;0.63;;;16.60;99.90;;;;;;4822034;29;91209;-79
2022/08/21 05:57:56;;;;;;;1.13;0.20;;;16.70;99.90;;;;;;4821618;29;92028;-80
2022/08/21 06:00:22;;;;;;;1.92;0.20;;;17.00;99.90;;;;;;4814837;29;91320;-79
2022/08/21 06:02:50;;;;;;;0.73;0.30;;;17.20;99.90;;;;;;4816277;29;92338;-80
2022/08/21 06:05:16;;;;;;;3.00;0.20;;;17.40;99.90;;;;;;4822074;29;91877;-79
2022/08/21 06:07:42;;;;;;;4.18;0.22;;;18.30;99.90;;;;;;4821354;29;92085;-79
2022/08/21 06:10:08;;;;;;;0.80;0.30;;;20.20;99.90;;;;;;4818900;29;92095;-80
2022/08/21 06:12:33;;;;;;;1.05;0.20;;;20.30;99.90;;;;;;4820813;29;91291;-79
2022/08/21 06:14:59;;;;;;;0.63;0.20;;;21.10;98.60;;;;;;4820678;29;92466;-79
2022/08/21 06:17:25;;;;;;;1.00;0.32;;;22.60;92.10;;;;;;4818815;29;92714;-79
2022/08/21 06:19:54;;;;;;;2.42;0.43;;;23.40;85.00;;;;;;4822100;29;91187;-79
2022/08/21 06:22:19;;;;;;;;;;;23.60;85.20;;;;;;4834380;29;92210;-79
2022/08/21 06:24:45;;;;;;;0.88;0.20;;;25.90;76.10;;;;;;4818318;29;92557;-79
2022/08/21 06:27:11;;;;;;;0.98;0.40;;;25.30;74.40;;;;;;4817483;29;93242;-79
2022/08/21 06:29:37;;;;;;;3.03;0.40;;;25.60;72.80;;;;;;4821664;29;92912;-81
2022/08/21 06:32:04;;;;;;;2.08;0.20;;;26.00;70.60;;;;;;4823926;29;91953;-80
2022/08/21 06:34:30;;;;;;;2.15;0.30;;;25.60;71.70;;;;;;4828543;29;92238;-80
2022/08/21 06:36:55;;;;;;;1.00;0.32;;;26.30;71.10;;;;;;4817792;29;92183;-79
2022/08/21 06:39:21;;;;;;;0.90;0.50;;;27.80;66.00;;;;;;4824252;29;91822;-79
2022/08/21 06:41:47;;;;;;;1.00;0.38;;;29.10;63.70;;;;;;4823839;29;91355;-79
2022/08/21 06:44:17;;;;;;;0.90;0.68;;;30.90;58.70;;;;;;4821597;29;91006;-79
2022/08/21 06:46:42;;;;;;;0.70;0.52;;;30.90;56.70;;;;;;4816632;29;91662;-84
2022/08/21 06:49:08;;;;;;;0.95;0.45;;;30.50;57.10;;;;;;4820189;29;92294;-84
2022/08/21 06:51:34;;;;;;;1.15;0.70;;;30.90;54.00;;;;;;4823290;29;92745;-84
2022/08/21 06:53:59;;;;;;;1.42;0.57;;;30.60;56.40;;;;;;4820741;29;91292;-84
2022/08/21 06:56:25;;;;;;;0.98;0.55;;;32.00;56.20;;;;;;4819095;29;94044;-84
2022/08/21 06:58:52;;;;;;;1.85;0.60;;;33.00;52.00;;;;;;4820520;29;91982;-82
2022/08/21 07:01:25;;;;;;;1.05;0.77;;;34.40;51.20;;;;;;4820345;29;91385;-83
2022/08/21 07:03:51;;;;;;;1.00;0.70;;;36.00;51.40;;;;;;4820546;29;92234;-82
2022/08/21 07:06:17;;;;;;;0.77;0.65;;;36.00;47.10;;;;;;4814884;29;92267;-82
2022/08/21 07:08:43;;;;;;;0.77;0.45;;;37.00;45.50;;;;;;4820465;29;91999;-82
2022/08/21 07:11:22;;;;;;;1.17;0.75;;;37.30;44.40;;;;;;4821566;29;91416;-82
2022/08/21 07:13:50;;;;;;;1.33;1.23;;;37.10;44.20;;;;;;4823626;29;91758;-82
2022/08/21 07:16:16;;;;;;;1.13;0.80;;;37.30;45.40;;;;;;4821035;29;95362;-82
2022/08/21 07:18:42;;;;;;;1.13;0.90;;;37.90;43.50;;;;;;4823828;29;92908;-82
2022/08/21 07:21:08;;;;;;;1.55;1.15;;;37.70;42.40;;;;;;4823609;29;92287;-82
2022/08/21 07:23:41;;;;;;;2.00;1.35;;;38.40;42.60;;;;;;4817677;29;92107;-82
2022/08/21 07:26:07;;;;;;;1.35;1.25;;;38.80;42.60;;;;;;4815656;29;92415;-82
2022/08/21 07:28:34;;;;;;;1.25;0.93;;;39.00;41.20;;;;;;4824268;29;91940;-82
2022/08/21 07:31:01;;;;;;;2.15;0.88;;;36.40;43.40;;;;;;4824138;29;91335;-82
2022/08/21 07:33:29;;;;;;;1.40;1.00;;;35.80;46.30;;;;;;4822023;29;90512;-83
2022/08/21 07:35:56;;;;;;;2.63;1.10;;;37.90;43.60;;;;;;4817274;29;92914;-82
2022/08/21 07:38:22;;;;;;;2.80;1.25;;;39.60;41.40;;;;;;4822861;29;91899;-82
2022/08/21 07:40:50;;;;;;;1.75;1.17;;;40.00;39.60;;;;;;4823781;29;92912;-83
2022/08/21 07:43:18;;;;;;;1.98;1.60;;;38.20;42.80;;;;;;4823323;29;91891;-82
2022/08/21 07:45:45;;;;;;;2.03;1.33;;;40.10;41.70;;;;;;4814733;29;92588;-82
2022/08/21 07:48:11;;;;;;;1.92;1.15;;;41.30;38.60;;;;;;4823243;29;93724;-82
2022/08/21 07:50:37;;;;;;;1.45;1.25;;;38.80;40.50;;;;;;4813578;29;92913;-83
2022/08/21 07:53:03;;;;;;;2.08;1.55;;;39.10;41.80;;;;;;4823753;29;91643;-83
2022/08/21 07:55:29;;;;;;;2.67;2.47;;;40.10;39.80;;;;;;4822331;29;93837;-83
2022/08/21 07:57:55;;;;;;;1.65;1.45;;;40.30;39.70;;;;;;4826522;29;91638;-83
2022/08/21 08:00:24;;;;;;;2.20;2.00;;;41.20;37.50;;;;;;4822712;29;91768;-82
2022/08/21 08:02:51;;;;;;;2.13;1.88;;;41.90;36.40;;;;;;4822297;29;91354;-83
2022/08/21 08:05:19;;;;;;;2.03;1.55;;;42.60;36.80;;;;;;4820322;29;92574;-83
2022/08/21 08:07:45;;;;;;;2.25;1.58;;;43.30;36.00;;;;;;4822672;29;92086;-84
2022/08/21 08:10:11;;;;;;;2.70;2.40;;;44.10;35.50;;;;;;4818518;29;92164;-82
2022/08/21 08:12:40;;;;;;;3.42;1.95;;;45.10;35.50;;;;;;4822331;29;91927;-82
2022/08/21 08:15:08;;;;;;;2.08;1.88;;;45.70;34.50;;;;;;4820796;29;93303;-79
2022/08/21 08:17:34;;;;;;;2.63;2.35;;;45.90;33.90;;;;;;4816712;29;93371;-81
2022/08/21 08:20:00;;;;;;;2.92;2.63;;;46.40;33.70;;;;;;4823389;29;91826;-84
2022/08/21 08:22:26;;;;;;;2.53;2.33;;;46.90;32.90;;;;;;4821041;29;91282;-82
2022/08/21 08:24:53;;;;;;;4.57;2.65;;;46.30;32.30;;;;;;4821601;29;91452;-80
2022/08/21 08:27:19;;;;;;;3.47;1.73;;;44.70;33.50;;;;;;4820178;29;92440;-80
2022/08/21 08:29:45;;;;;;;2.85;2.65;;;44.60;34.70;;;;;;4822554;29;92866;-81
2022/08/21 08:32:11;;;;;;;2.50;1.92;;;45.50;33.10;;;;;;4822251;29;91910;-81
2022/08/21 08:34:38;;;;;;;3.22;2.80;;;45.10;33.50;;;;;;4822842;29;92658;-82
2022/08/21 08:37:06;;;;;;;2.72;2.53;;;45.80;33.70;;;;;;4822796;29;92633;-82
2022/08/21 08:39:32;;;;;;;4.07;3.75;;;47.40;32.40;;;;;;4823093;29;92066;-81
2022/08/21 08:42:17;;;;;;;3.05;2.83;;;46.30;32.70;;;;;;4823040;29;92437;-82
2022/08/21 08:44:46;;;;;;;4.55;4.15;;;47.10;33.10;;;;;;4822904;29;92272;-83
2022/08/21 08:47:16;;;;;;;3.42;3.13;;;47.90;33.20;;;;;;4821821;29;93726;-82
2022/08/21 08:50:04;;;;;;;4.10;3.80;;;48.40;33.20;;;;;;4822854;29;91790;-82
2022/08/21 08:52:36;;;;;;;4.10;3.80;;;46.90;34.40;;;;;;4802066;29;91486;-81
2022/08/21 08:55:20;;;;;;;3.08;2.80;;;45.80;34.00;;;;;;4822143;29;93232;-81
2022/08/21 08:57:47;;;;;;;2.40;2.17;;;42.50;35.80;;;;;;4822866;29;92147;-82
2022/08/21 09:00:16;;;;;;;;;;;42.90;37.30;;;;;;4822442;29;92970;-81
2022/08/21 09:02:43;;;;;;;3.08;2.75;;;45.10;35.50;;;;;;4822836;29;91991;-82
2022/08/21 09:05:46;;;;;;;2.95;2.72;;;46.40;33.80;;;;;;4811293;29;92340;-82
2022/08/21 09:08:39;;;;;;;3.65;3.05;;;47.90;32.90;;;;;;4801641;29;91738;-82
2022/08/21 09:11:29;;;;;;;5.05;4.65;;;48.80;31.50;;;;;;4822893;29;91410;-82
2022/08/21 09:14:12;;;;;;;4.72;4.32;;;49.10;31.80;;;;;;4822859;29;91241;-81
2022/08/21 09:16:46;;;;;;;6.93;6.38;;;48.70;33.20;;;;;;4814743;29;92308;-83
2022/08/21 09:19:35;;;;;;;5.53;5.13;;;49.70;31.70;;;;;;4821960;29;93714;-81
2022/08/21 09:22:04;;;;;;;5.18;4.70;;;50.30;31.40;;;;;;4821665;29;92665;-82
2022/08/21 09:24:32;;;;;;;5.70;5.20;;;50.50;30.30;;;;;;4822274;29;91892;-82
2022/08/21 09:27:07;;;;;;;5.60;5.20;;;48.60;31.60;;;;;;4821411;29;94804;-82
2022/08/21 09:29:37;;;;;;;4.85;4.45;;;48.30;32.60;;;;;;4821878;29;92703;-82
2022/08/21 09:32:19;;;;;;;4.95;4.45;;;48.00;32.30;;;;;;4821159;29;91960;-82
2022/08/21 09:35:05;;;;;;;7.80;7.20;;;48.60;32.00;;;;;;4814513;29;91810;-82
2022/08/21 09:37:34;;;;;;;6.78;6.28;;;48.60;32.10;;;;;;4810731;29;92400;-82
2022/08/21 09:40:01;;;;;;;5.20;4.80;;;49.80;30.60;;;;;;4822556;29;91653;-82
2022/08/21 09:42:33;;;;;;;5.70;5.30;;;50.40;29.90;;;;;;4821944;29;91642;-83
2022/08/21 09:45:13;;;;;;;5.75;5.35;;;50.00;31.10;;;;;;4821149;29;91614;-82
2022/08/21 09:47:40;;;;;;;5.05;4.68;;;49.60;30.80;;;;;;4813300;29;92728;-82
2022/08/21 09:50:13;;;;;;;5.50;5.05;;;49.50;30.80;;;;;;4821666;29;94060;-82
2022/08/21 09:52:52;;;;;;;5.20;4.80;;;49.90;30.30;;;;;;4821349;29;92132;-81
2022/08/21 09:58:41;;;;;;;5.28;4.10;;;47.00;32.40;;;;;;4776441;29;92094;-81
2022/08/21 10:01:16;;;;;;;5.65;5.25;;;46.80;32.90;;;;;;4817866;29;92439;-83
2022/08/21 10:03:42;;;;;;;4.82;4.40;;;47.50;32.40;;;;;;4821748;29;91357;-82
2022/08/21 10:06:10;;;;;;;4.50;4.10;;;46.10;33.60;;;;;;4822017;29;91035;-82
2022/08/21 10:08:40;;;;;;;4.45;4.05;;;45.10;34.20;;;;;;4811786;29;93871;-82
2022/08/21 10:11:12;;;;;;;3.92;3.58;;;45.00;33.50;;;;;;4821235;29;92041;-82
2022/08/21 10:13:44;;;;;;;5.43;3.20;;;44.00;35.20;;;;;;4821859;29;92716;-81
2022/08/21 10:16:48;;;;;;;3.72;3.40;;;45.90;33.10;;;;;;4820278;29;91431;-82
2022/08/21 10:19:32;;;;;;;5.07;3.40;;;46.00;32.10;;;;;;4799125;29;92360;-84
2022/08/21 10:22:25;;;;;;;3.13;2.83;;;45.30;32.60;;;;;;4821408;29;91934;-81
2022/08/21 10:25:10;;;;;;;3.03;2.83;;;41.60;34.90;;;;;;4817009;29;91931;-81
2022/08/21 10:27:51;;;;;;;2.80;2.60;;;38.00;38.40;;;;;;4821187;29;91654;-80
2022/08/21 10:30:41;;;;;;;2.03;1.80;;;35.00;42.10;;;;;;4820278;29;92283;-80
2022/08/21 10:33:19;;;;;;;3.72;2.00;;;33.10;45.80;;;;;;4813537;29;91995;-80
2022/08/21 10:36:26;;;;;;;1.60;1.17;;;32.30;47.70;;;;;;4821943;29;91744;-81
2022/08/21 10:38:51;;;;;;;;;;;30.90;51.70;;;;;;4820995;29;91288;-80
2022/08/21 10:41:41;;;;;;;1.05;0.65;;;30.30;53.10;;;;;;4822071;29;92868;-81
2022/08/21 10:44:57;;;;;;;1.65;1.05;;;29.90;52.80;;;;;;4820450;29;94951;-80
2022/08/21 10:47:54;;;;;;;1.52;0.73;;;29.30;54.30;;;;;;4781280;29;92349;-81
2022/08/21 10:50:50;;;;;;;1.17;0.55;;;28.70;56.40;;;;;;4824813;29;91955;-79
2022/08/21 10:53:46;;;;;;;2.95;0.45;;;28.20;55.70;;;;;;4819087;29;92533;-80
2022/08/21 10:56:14;;;;;;;3.05;0.57;;;28.00;58.50;;;;;;4824428;29;92323;-79
2022/08/21 10:58:46;;;;;;;1.60;0.55;;;28.10;57.80;;;;;;4824486;29;92025;-80
2022/08/21 11:01:18;;;;;;;3.00;0.43;;;27.80;57.10;;;;;;4823650;29;91759;-80
2022/08/21 11:03:49;;;;;;;3.28;0.40;;;27.30;57.90;;;;;;4815403;29;92283;-80
2022/08/21 11:06:19;;;;;;;2.70;0.63;;;27.50;59.10;;;;;;4823649;29;92473;-80
2022/08/21 11:08:54;;;;;;;1.98;0.40;;;27.80;56.30;;;;;;4824408;29;94954;-79
2022/08/21 11:11:36;;;;;;;4.10;0.60;;;27.60;58.40;;;;;;4824517;29;91718;-80
2022/08/21 11:14:38;;;;;;;1.80;0.52;;;28.00;58.40;;;;;;4823315;29;92508;-80
2022/08/21 11:17:07;;;;;;;1.92;0.52;;;28.20;56.50;;;;;;4819481;29;92020;-79
2022/08/21 11:19:48;;;;;;;1.65;0.90;;;27.90;57.20;;;;;;4821360;29;91306;-79
2022/08/21 11:22:37;;;;;;;1.60;0.45;;;27.30;58.50;;;;;;4821255;29;92065;-79
2022/08/21 11:25:29;;;;;;;1.33;0.40;;;27.40;57.60;;;;;;4820539;29;92230;-79
2022/08/21 11:28:05;;;;;;;1.55;0.73;;;27.50;56.80;;;;;;4800983;29;91610;-79
2022/08/21 11:30:46;;;;;;;1.25;0.38;;;27.30;59.90;;;;;;4823058;29;91424;-79
2022/08/21 11:33:29;;;;;;;1.73;0.40;;;27.30;58.50;;;;;;4823704;29;92170;-79
2022/08/21 11:36:18;;;;;;;1.35;0.20;;;27.50;57.60;;;;;;4823538;29;93348;-79
2022/08/21 11:38:54;;;;;;;1.50;0.57;;;27.80;58.10;;;;;;4809594;29;93029;-79
2022/08/21 11:41:39;;;;;;;2.70;0.57;;;28.00;56.20;;;;;;4824044;29;91656;-79
2022/08/21 11:44:17;;;;;;;2.03;0.43;;;27.50;57.90;;;;;;4816737;29;91748;-80
2022/08/21 11:47:07;;;;;;;1.13;0.30;;;27.40;60.50;;;;;;4825059;29;92311;-79
2022/08/21 11:49:39;;;;;;;1.42;0.45;;;27.20;56.10;;;;;;4824518;29;92070;-79
2022/08/21 11:52:21;;;;;;;1.90;0.35;;;27.30;55.70;;;;;;4818763;29;91863;-79
2022/08/21 11:54:59;;;;;;;1.52;0.45;;;27.10;55.90;;;;;;4826896;29;91061;-79
2022/08/21 11:57:44;;;;;;;1.50;0.30;;;26.80;58.60;;;;;;4820224;29;91716;-79
2022/08/21 12:00:34;;;;;;;1.02;0.40;;;26.60;57.30;;;;;;4825277;29;93044;-80
2022/08/21 12:03:27;;;;;;;4.10;0.30;;;26.80;59.10;;;;;;4818306;29;93025;-80
2022/08/21 12:06:07;;;;;;;3.00;0.47;;;27.10;59.50;;;;;;4823217;29;91605;-80
2022/08/21 12:08:39;;;;;;;2.28;0.50;;;27.10;59.60;;;;;;4823609;29;92136;-80
2022/08/21 12:11:15;;;;;;;3.05;0.60;;;27.00;59.60;;;;;;4822536;29;91299;-79
2022/08/21 12:14:13;;;;;;;2.83;0.50;;;27.10;57.80;;;;;;4822100;29;92128;-79
2022/08/21 12:16:48;;;;;;;2.22;0.73;;;26.90;58.60;;;;;;4824483;29;91282;-79
2022/08/21 12:19:35;;;;;;;4.32;0.32;;;26.80;58.90;;;;;;4822434;29;91581;-79
2022/08/21 12:22:03;;;;;;;1.67;0.50;;;26.70;59.10;;;;;;4825189;29;94924;-79
2022/08/21 12:24:40;;;;;;;2.60;0.73;;;26.40;59.40;;;;;;4823576;29;91504;-79
2022/08/21 12:27:41;;;;;;;1.23;0.32;;;26.40;58.90;;;;;;4827226;29;91459;-79
2022/08/21 12:30:33;;;;;;;3.22;0.32;;;26.80;58.60;;;;;;4821204;29;93383;-79
2022/08/21 12:33:08;;;;;;;1.92;0.38;;;26.90;58.20;;;;;;4824856;29;92989;-79
2022/08/21 12:35:42;;;;;;;2.30;0.52;;;26.80;58.50;;;;;;4824838;29;92003;-79
2022/08/21 12:38:29;;;;;;;1.83;0.50;;;27.00;60.20;;;;;;4823651;29;91341;-79
2022/08/21 12:41:05;;;;;;;1.98;0.30;;;26.80;59.80;;;;;;4827826;29;92334;-79
2022/08/21 12:43:37;;;;;;;1.63;0.60;;;26.70;58.30;;;;;;4823828;29;91783;-79
2022/08/21 12:46:04;;;;;;;2.70;0.40;;;26.80;60.30;;;;;;4823038;29;91322;-79
2022/08/21 12:48:44;;;;;;;1.42;0.45;;;26.90;59.30;;;;;;4825180;29;91388;-79
2022/08/21 12:51:12;;;;;;;2.35;0.40;;;26.90;58.20;;;;;;4824611;29;91669;-79
2022/08/21 12:53:46;;;;;;;3.47;0.40;;;26.90;59.90;;;;;;4824615;29;92052;-79
2022/08/21 12:56:15;;;;;;;3.78;0.50;;;26.50;58.70;;;;;;4824561;29;92263;-80
2022/08/21 12:58:46;;;;;;;1.88;0.20;;;26.20;60.40;;;;;;4820833;29;92575;-78
2022/08/21 13:01:21;;;;;;;1.33;0.10;;;26.10;59.20;;;;;;4823656;29;92255;-78
2022/08/21 13:03:47;;;;;;;1.05;0.40;;;26.10;60.20;;;;;;4821722;29;92929;-79
2022/08/21 13:06:16;;;;;;;2.90;0.30;;;26.10;59.30;;;;;;4818520;29;91949;-77
2022/08/21 13:08:44;;;;;;;4.40;0.30;;;26.20;59.60;;;;;;4824895;29;91505;-80
2022/08/21 13:11:11;;;;;;;1.35;0.52;;;26.30;59.10;;;;;;4826104;29;92110;-80
2022/08/21 13:13:38;;;;;;;2.17;0.55;;;26.30;59.00;;;;;;4825621;29;91065;-77
2022/08/21 13:16:06;;;;;;;1.15;0.30;;;26.30;59.10;;;;;;4824997;29;92084;-78
2022/08/21 13:18:51;;;;;;;0.77;0.43;;;26.30;58.30;;;;;;4824522;29;91727;-79
2022/08/21 13:21:17;;;;;;;0.98;0.30;;;26.40;57.80;;;;;;4826338;29;94079;-80
2022/08/21 13:23:42;;;;;;;3.17;0.40;;;26.30;59.40;;;;;;4825899;29;92960;-78
2022/08/21 13:26:21;;;;;;;1.00;0.40;;;26.40;56.60;;;;;;4825024;29;91928;-79
2022/08/21 13:28:49;;;;;;;1.20;0.43;;;26.30;57.20;;;;;;4822113;29;92009;-80
2022/08/21 13:31:27;;;;;;;3.95;0.52;;;26.10;58.30;;;;;;4823328;29;91569;-80
2022/08/21 13:33:54;;;;;;;26.77;0.98;;;26.30;57.10;;;;;;4823584;29;92208;-79
2022/08/21 13:36:31;;;;;;;4.43;0.75;;;26.40;60.90;;;;;;4824397;29;91668;-76
2022/08/21 13:38:57;;;;;;;3.90;0.40;;;26.20;59.40;;;;;;4823751;29;90726;-75
2022/08/21 13:41:30;;;;;;;1.65;0.50;;;26.10;59.20;;;;;;4824059;29;92250;-76
2022/08/21 13:44:02;;;;;;;2.85;0.52;;;26.00;58.80;;;;;;4819109;29;92052;-76
2022/08/21 13:46:31;;;;;;;1.10;0.40;;;26.00;60.50;;;;;;4823945;29;93015;-76
2022/08/21 13:48:59;;;;;;;1.88;0.40;;;26.10;58.30;;;;;;4823961;29;91870;-77
2022/08/21 13:51:25;;;;;;;1.98;0.22;;;26.10;58.00;;;;;;4821314;29;92787;-76
2022/08/21 13:53:52;;;;;;;1.10;0.20;;;26.10;57.00;;;;;;4824356;29;91914;-76
2022/08/21 13:56:40;;;;;;;1.27;0.38;;;26.00;57.20;;;;;;4825801;29;91794;-76
2022/08/21 13:59:06;;;;;;;0.70;0.30;;;26.00;59.20;;;;;;4817397;29;91397;-77
2022/08/21 14:01:33;;;;;;;1.73;0.32;;;26.10;58.80;;;;;;4820925;29;91867;-75
2022/08/21 14:04:05;;;;;;;0.80;0.30;;;26.00;56.70;;;;;;4825585;29;92237;-76
2022/08/21 14:06:36;;;;;;;1.95;0.30;;;25.90;56.70;;;;;;4822257;29;91364;-77
2022/08/21 14:09:13;;;;;;;0.88;0.30;;;25.90;56.20;;;;;;4820739;29;92582;-77
2022/08/21 14:11:40;;;;;;;3.83;0.57;;;25.90;57.30;;;;;;4818915;29;92820;-77
2022/08/21 14:14:33;;;;;;;2.28;0.50;;;25.80;58.30;;;;;;4819963;29;92185;-76
2022/08/21 14:17:06;;;;;;;1.52;0.20;;;25.90;58.70;;;;;;4827499;29;91446;-78
2022/08/21 14:19:43;;;;;;;1.70;0.20;;;25.90;58.30;;;;;;4822935;29;91964;-77
2022/08/21 14:22:43;;;;;;;1.58;0.40;;;25.90;57.20;;;;;;4823056;29;92339;-79
2022/08/21 14:25:26;;;;;;;0.90;0.30;;;25.80;57.30;;;;;;4804209;29;92352;-76
2022/08/21 14:27:56;;;;;;;0.60;0.20;;;25.70;57.70;;;;;;4820096;29;91333;-77
2022/08/21 14:30:30;;;;;;;1.08;0.22;;;25.80;57.70;;;;;;4819421;29;91096;-76
2022/08/21 14:32:56;;;;;;;1.38;0.30;;;25.90;57.70;;;;;;4821655;29;92533;-76
2022/08/21 14:35:22;;;;;;;1.77;0.40;;;26.10;56.90;;;;;;4822179;29;92107;-78
2022/08/21 14:37:53;;;;;;;0.90;0.40;;;26.00;57.30;;;;;;4827882;29;92732;-75
2022/08/21 14:40:22;;;;;;;3.20;0.35;;;26.00;56.80;;;;;;4826521;29;92136;-75
2022/08/21 14:42:49;;;;;;;1.58;0.35;;;25.90;57.10;;;;;;4825198;29;92261;-76
2022/08/21 14:45:27;;;;;;;0.77;0.45;;;25.90;57.70;;;;;;4823406;29;92879;-77
2022/08/21 14:47:53;;;;;;;0.93;0.30;;;26.00;56.40;;;;;;4831154;29;92223;-76
2022/08/21 14:50:19;;;;;;;1.40;0.22;;;26.10;56.90;;;;;;4822694;29;92563;-76
2022/08/21 14:52:45;;;;;;;2.88;0.20;;;25.90;57.00;;;;;;4828001;29;92728;-76
2022/08/21 14:55:16;;;;;;;1.23;0.60;;;25.80;56.30;;;;;;4819106;29;91718;-76
2022/08/21 14:57:48;;;;;;;0.70;0.20;;;26.00;57.40;;;;;;4819597;29;92104;-76
2022/08/21 15:00:16;;;;;;;0.90;0.22;;;26.00;56.20;;;;;;4819119;29;92025;-78
2022/08/21 15:02:42;;;;;;;1.10;0.30;;;25.80;55.50;;;;;;4823792;29;94303;-78
2022/08/21 15:05:08;;;;;;;0.88;0.22;;;25.80;56.20;;;;;;4819674;29;92800;-76
2022/08/21 15:07:34;;;;;;;0.90;0.30;;;25.80;55.10;;;;;;4817651;29;92146;-78
2022/08/21 15:10:00;;;;;;;0.85;0.10;;;25.80;53.90;;;;;;4815812;29;94814;-76
2022/08/21 15:12:26;;;;;;;0.65;0.20;;;25.70;54.00;;;;;;4821928;29;93714;-77
2022/08/21 15:14:52;;;;;;;1.65;0.17;;;25.80;53.30;;;;;;4815418;29;91385;-77
2022/08/21 15:17:18;;;;;;;0.60;0.25;;;25.80;54.80;;;;;;4822317;29;92004;-76
2022/08/21 15:19:44;;;;;;;1.27;0.35;;;25.80;53.50;;;;;;4820024;29;91647;-76
2022/08/21 15:22:10;;;;;;;0.90;0.22;;;25.80;53.40;;;;;;4815161;29;91972;-76
2022/08/21 15:24:35;;;;;;;0.93;0.20;;;25.90;53.30;;;;;;4820733;29;92050;-76
2022/08/21 15:27:03;;;;;;;0.77;0.22;;;25.90;52.50;;;;;;4820102;29;92625;-76
2022/08/21 15:29:30;;;;;;;0.80;0.10;;;25.80;52.40;;;;;;4822673;29;92042;-76
2022/08/21 15:31:58;;;;;;;0.63;0.17;;;25.80;52.10;;;;;;4819858;29;92205;-78
2022/08/21 15:34:27;;;;;;;0.70;0.10;;;25.60;53.50;;;;;;4822487;29;92064;-79
2022/08/21 15:36:53;;;;;;;0.85;0.20;;;25.70;53.00;;;;;;4825973;29;91263;-76
2022/08/21 15:39:19;;;;;;;0.60;0.20;;;25.80;52.80;;;;;;4815338;29;91983;-78
2022/08/21 15:41:45;;;;;;;1.08;0.50;;;25.80;52.70;;;;;;4823106;29;91956;-79
2022/08/21 15:44:12;;;;;;;0.40;0.13;;;25.80;52.30;;;;;;4822929;29;92312;-78
2022/08/21 15:46:40;;;;;;;0.93;0.30;;;25.80;52.20;;;;;;4825073;29;91951;-78
2022/08/21 15:49:06;;;;;;;1.00;0.10;;;25.80;52.60;;;;;;4822313;29;91425;-80
2022/08/21 15:51:33;;;;;;;1.50;0.20;;;25.80;52.90;;;;;;4831967;29;92739;-78
2022/08/21 15:53:59;;;;;;;0.73;0.22;;;25.80;52.50;;;;;;4826597;29;92928;-79
2022/08/21 15:56:28;;;;;;;0.90;0.13;;;25.60;53.70;;;;;;4827018;29;91364;-79
2022/08/21 15:59:00;;;;;;;1.38;0.30;;;25.50;54.10;;;;;;4826913;29;91342;-78
2022/08/21 16:01:26;;;;;;;0.60;0.20;;;25.50;53.90;;;;;;4825048;29;93021;-80
2022/08/21 16:03:53;;;;;;;1.20;0.20;;;25.50;53.50;;;;;;4829116;29;92103;-78
2022/08/21 16:06:19;;;;;;;1.17;0.20;;;25.60;53.50;;;;;;4826350;29;92049;-78
2022/08/21 16:08:45;;;;;;;1.45;0.47;;;25.50;53.70;;;;;;4824887;29;91892;-79
2022/08/21 16:11:14;;;;;;;0.77;0.20;;;25.40;54.10;;;;;;4823437;29;92358;-79
2022/08/21 16:13:43;;;;;;;1.10;0.30;;;25.40;55.00;;;;;;4824031;29;92405;-78
2022/08/21 16:16:16;;;;;;;1.80;0.22;;;25.40;54.30;;;;;;4822410;29;92263;-80
2022/08/21 16:18:42;;;;;;;1.75;0.32;;;25.40;55.10;;;;;;4824401;29;91935;-79
2022/08/21 16:21:09;;;;;;;1.15;0.45;;;25.40;55.00;;;;;;4824118;29;93846;-80
2022/08/21 16:23:37;;;;;;;1.25;0.32;;;25.40;55.20;;;;;;4824241;29;91325;-79
2022/08/21 16:26:04;;;;;;;1.90;0.68;;;25.40;55.40;;;;;;4823945;29;91968;-78
2022/08/21 16:28:33;;;;;;;0.90;0.30;;;25.40;55.20;;;;;;4823508;29;92652;-79
2022/08/21 16:30:59;;;;;;;1.50;0.43;;;25.30;55.80;;;;;;4820833;29;91684;-79
2022/08/21 16:33:40;;;;;;;3.00;0.25;;;25.40;55.40;;;;;;4824015;29;92427;-78
2022/08/21 16:36:07;;;;;;;1.38;0.30;;;25.40;55.60;;;;;;4824465;29;91996;-78
2022/08/21 16:38:36;;;;;;;1.40;0.22;;;25.30;56.10;;;;;;4824040;29;91750;-78
2022/08/21 16:41:06;;;;;;;1.17;0.40;;;25.30;55.50;;;;;;4822243;29;93753;-78
2022/08/21 16:43:33;;;;;;;1.38;0.50;;;25.20;55.60;;;;;;4826100;29;93816;-79
2022/08/21 16:46:00;;;;;;;1.55;0.30;;;25.20;56.30;;;;;;4821179;29;91664;-78
2022/08/21 16:48:28;;;;;;;1.58;0.43;;;25.20;55.70;;;;;;4819937;29;92303;-80
2022/08/21 16:50:54;;;;;;;3.53;0.52;;;25.10;55.80;;;;;;4823605;29;92382;-79
2022/08/21 16:53:19;;;;;;;1.25;0.30;;;25.00;56.10;;;;;;4823402;29;91287;-78
2022/08/21 16:55:45;;;;;;;1.05;0.35;;;25.00;56.80;;;;;;4825917;29;91696;-78
2022/08/21 16:58:23;;;;;;;1.50;0.30;;;24.90;56.40;;;;;;4829215;29;90730;-79
2022/08/21 17:00:50;;;;;;;2.50;0.40;;;25.00;56.70;;;;;;4823097;29;92449;-78
2022/08/21 17:03:20;;;;;;;2.17;0.22;;;25.00;56.80;;;;;;4819818;29;91626;-79
2022/08/21 17:05:46;;;;;;;2.35;0.40;;;25.00;56.70;;;;;;4825734;29;92342;-78
2022/08/21 17:08:12;;;;;;;1.58;0.35;;;25.00;56.80;;;;;;4824242;29;91911;-79
2022/08/21 17:10:46;;;;;;;1.33;0.43;;;24.90;56.90;;;;;;4824128;29;91802;-79
2022/08/21 17:13:12;;;;;;;1.40;0.30;;;24.90;57.00;;;;;;4823990;29;91751;-78
2022/08/21 17:15:38;;;;;;;1.15;0.20;;;24.90;57.10;;;;;;4829076;29;93218;-78